Time;durP1;ratioP1;P1;durP2;ratioP2;P2;SDS_P1;SDS_P2;PMS_P1;PMS_P2;Temp;Humidity;BMP_temperature;BMP_pressure;BME280_temperature;BME280_humidity;BME280_pressure;Samples;Min_cycle;Max_cycle;Signal;HPM_P1;HPM_P2
2022/12/01 00:00:54;;;;;;;1.96;1.36;;;;;;;-0.57;42.72;102738.63;460811;114;922370;-78
2022/12/01 00:01:57;;;;;;;1.31;1.19;;;;;;;-0.57;42.72;102746.66;458344;115;922662;-79
2022/12/01 00:03:00;;;;;;;1.57;1.36;;;;;;;-0.57;42.76;102747.53;458497;113;922499;-80
2022/12/01 00:04:04;;;;;;;1.84;1.41;;;;;;;-0.57;42.65;102734.13;458562;115;922538;-79
2022/12/01 00:05:07;;;;;;;1.77;1.19;;;;;;;-0.57;42.66;102742.17;460252;114;922869;-79
2022/12/01 00:06:16;;;;;;;1.67;1.45;;;;;;;-0.56;42.57;102740.36;463078;113;922381;-80
2022/12/01 00:07:19;;;;;;;1.36;1.26;;;;;;;-0.58;42.54;102743.12;459093;114;922495;-80
2022/12/01 00:08:23;;;;;;;1.77;1.47;;;;;;;-0.60;42.51;102736.98;463876;114;922469;-80
2022/12/01 00:10:47;;;;;;;1.52;1.22;;;;;;;-0.60;42.50;102736.98;460102;113;922555;-82
2022/12/01 00:11:50;;;;;;;1.73;1.20;;;;;;;-0.61;42.52;102735.27;460176;113;922945;-81
2022/12/01 00:12:56;;;;;;;1.45;1.35;;;;;;;-0.60;42.62;102746.83;461022;114;922471;-79
2022/12/01 00:13:59;;;;;;;1.53;1.43;;;;;;;-0.60;42.61;102736.11;461993;113;922456;-81
2022/12/01 00:15:02;;;;;;;2.11;1.54;;;;;;;-0.60;42.51;102744.14;463073;113;922502;-81
2022/12/01 00:16:11;;;;;;;1.36;1.22;;;;;;;-0.61;42.49;102740.63;463678;114;922974;-79
2022/12/01 00:17:15;;;;;;;1.91;1.53;;;;;;;-0.61;42.46;102743.31;463585;114;922526;-80
2022/12/01 00:18:18;;;;;;;1.74;1.29;;;;;;;-0.62;42.48;102733.55;463346;113;922573;-79
2022/12/01 00:19:26;;;;;;;1.99;1.52;;;;;;;-0.61;42.49;102745.98;458988;115;922888;-80
2022/12/01 00:20:31;;;;;;;1.53;1.43;;;;;;;-0.61;42.42;102737.95;461760;113;930255;-78
2022/12/01 00:21:34;;;;;;;1.73;1.53;;;;;;;-0.60;42.44;102741.47;458345;115;922546;-79
2022/12/01 00:22:39;;;;;;;1.98;1.22;;;;;;;-0.62;42.39;102733.55;461172;113;922522;-80
2022/12/01 00:23:43;;;;;;;1.99;1.59;;;;;;;-0.61;42.41;102740.63;459972;115;922522;-80
2022/12/01 00:24:47;;;;;;;1.44;1.33;;;;;;;-0.60;42.52;102742.33;460823;115;922723;-81
2022/12/01 00:25:50;;;;;;;1.43;1.31;;;;;;;-0.58;42.57;102739.57;459802;115;922963;-80
2022/12/01 00:26:53;;;;;;;1.67;1.38;;;;;;;-0.59;42.37;102744.06;460569;114;922709;-80
2022/12/01 00:27:57;;;;;;;1.40;1.08;;;;;;;-0.59;42.43;102744.06;457836;114;922537;-79
2022/12/01 00:29:00;;;;;;;1.69;1.36;;;;;;;-0.58;42.34;102739.57;460778;114;922534;-79
2022/12/01 00:30:06;;;;;;;1.69;1.47;;;;;;;-0.57;42.41;102746.66;461373;115;922564;-81
2022/12/01 00:31:10;;;;;;;2.44;1.37;;;;;;;-0.57;42.35;102744.84;460603;114;922429;-80
2022/12/01 00:32:14;;;;;;;2.56;1.43;;;;;;;-0.55;42.27;102744.77;450800;116;922509;-80
2022/12/01 00:33:17;;;;;;;1.54;1.31;;;;;;;-0.55;42.21;102740.24;451579;116;922618;-80
2022/12/01 00:34:25;;;;;;;1.96;1.52;;;;;;;-0.55;42.10;102750.12;451658;115;922529;-79
2022/12/01 00:35:28;;;;;;;1.47;1.24;;;;;;;-0.57;42.08;102741.30;450061;117;922928;-78
2022/12/01 00:36:32;;;;;;;1.32;1.21;;;;;;;-0.59;41.98;102740.52;455293;116;922638;-79
2022/12/01 00:37:35;;;;;;;1.70;1.36;;;;;;;-0.62;42.03;102738.91;450616;116;922896;-79
2022/12/01 00:38:39;;;;;;;1.49;1.39;;;;;;;-0.63;42.03;102745.20;448583;116;922628;-80
2022/12/01 00:39:42;;;;;;;1.29;1.19;;;;;;;-0.63;42.05;102731.81;448626;116;922588;-80
2022/12/01 00:40:45;;;;;;;1.88;1.58;;;;;;;-0.63;42.20;102741.66;448566;116;923208;-79
2022/12/01 00:41:48;;;;;;;2.34;1.74;;;;;;;-0.62;42.11;102738.91;453376;116;922576;-81
2022/12/01 00:42:52;;;;;;;1.36;1.26;;;;;;;-0.60;42.10;102730.75;442316;118;923268;-79
2022/12/01 00:43:55;;;;;;;2.17;1.28;;;;;;;-0.60;42.13;102738.78;443063;118;922663;-79
2022/12/01 00:44:58;;;;;;;1.80;1.38;;;;;;;-0.61;42.13;102735.27;449570;116;922608;-79
2022/12/01 00:46:02;;;;;;;1.48;1.38;;;;;;;-0.61;42.16;102735.27;455715;113;922492;-78
2022/12/01 00:47:05;;;;;;;1.41;1.26;;;;;;;-0.62;42.04;102730.86;458400;115;922388;-80
2022/12/01 00:48:09;;;;;;;2.29;1.56;;;;;;;-0.62;42.02;102738.91;462466;114;922604;-78
2022/12/01 00:49:12;;;;;;;1.40;1.25;;;;;;;-0.63;42.06;102731.81;460819;114;922442;-79
2022/12/01 00:50:15;;;;;;;2.41;1.24;;;;;;;-0.64;41.96;102732.76;463691;114;922527;-78
2022/12/01 00:51:19;;;;;;;1.41;1.31;;;;;;;-0.64;41.97;102737.25;463553;114;930192;-79
2022/12/01 00:52:22;;;;;;;1.65;1.21;;;;;;;-0.64;41.99;102738.12;459355;113;922614;-80
2022/12/01 00:53:25;;;;;;;1.71;1.27;;;;;;;-0.64;41.99;102734.57;465163;113;922510;-81
2022/12/01 00:54:30;;;;;;;1.92;1.48;;;;;;;-0.64;42.06;102735.44;462067;114;922929;-80
2022/12/01 00:55:33;;;;;;;1.77;1.59;;;;;;;-0.65;41.95;102739.06;464702;113;922598;-79
2022/12/01 00:56:37;;;;;;;1.82;1.52;;;;;;;-0.66;42.05;102734.66;458711;115;922673;-79
2022/12/01 00:57:40;;;;;;;1.41;1.25;;;;;;;-0.66;42.00;102741.86;458463;113;930246;-82
2022/12/01 00:58:43;;;;;;;1.82;1.58;;;;;;;-0.67;41.95;102732.95;459720;113;922421;-78
2022/12/01 00:59:46;;;;;;;1.96;1.64;;;;;;;-0.67;42.00;102740.12;460788;113;922515;-79
2022/12/01 01:00:59;;;;;;;1.77;1.53;;;;;;;-0.68;42.04;102741.07;461230;113;922558;-78
2022/12/01 01:02:04;;;;;;;1.55;1.33;;;;;;;-0.69;42.04;102732.16;458227;115;930204;-78
2022/12/01 01:03:08;;;;;;;1.53;1.43;;;;;;;-0.69;42.00;102740.20;458308;115;923222;-79
2022/12/01 01:04:11;;;;;;;1.59;1.39;;;;;;;-0.68;42.06;102735.71;459457;113;923487;-79
2022/12/01 01:05:14;;;;;;;1.87;1.34;;;;;;;-0.68;42.08;102738.39;458405;113;930037;-79
2022/12/01 01:06:17;;;;;;;1.53;1.43;;;;;;;-0.68;42.10;102739.26;458440;113;922571;-80
2022/12/01 01:07:21;;;;;;;1.41;1.24;;;;;;;-0.69;42.00;102737.52;460720;114;922535;-80
2022/12/01 01:08:24;;;;;;;1.56;1.40;;;;;;;-0.68;42.07;102739.26;463507;114;922628;-79
2022/12/01 01:09:27;;;;;;;1.54;1.44;;;;;;;-0.68;42.08;102733.90;460857;113;922994;-81
2022/12/01 01:10:30;;;;;;;1.69;1.35;;;;;;;-0.68;42.07;102733.90;458471;113;922533;-78
2022/12/01 01:11:34;;;;;;;1.40;1.30;;;;;;;-0.67;41.96;102740.98;459304;113;930500;-80
2022/12/01 01:12:37;;;;;;;1.22;1.11;;;;;;;-0.68;41.94;102735.71;461365;113;922494;-76
2022/12/01 01:13:40;;;;;;;1.33;1.23;;;;;;;-0.68;41.97;102736.58;459853;114;922589;-79
2022/12/01 01:14:43;;;;;;;1.59;1.38;;;;;;;-0.68;41.86;102738.39;460672;114;922458;-81
2022/12/01 01:15:50;;;;;;;1.92;1.56;;;;;;;-0.69;41.91;102737.52;458601;115;922544;-78
2022/12/01 01:16:55;;;;;;;1.77;1.21;;;;;;;-0.70;41.83;102740.28;460267;114;922557;-79
2022/12/01 01:17:58;;;;;;;1.61;1.50;;;;;;;-0.70;41.88;102737.61;461125;114;923034;-80
2022/12/01 01:19:01;;;;;;;2.21;1.41;;;;;;;-0.71;41.88;102735.88;459288;113;922465;-79
2022/12/01 01:20:05;;;;;;;1.55;1.14;;;;;;;-0.72;41.91;102735.04;464648;113;922604;-80
2022/12/01 01:21:12;;;;;;;3.61;1.11;;;;;;;-0.73;41.83;102730.63;461870;113;922602;-80
2022/12/01 01:22:15;;;;;;;1.84;1.53;;;;;;;-0.72;41.93;102735.04;458370;113;922601;-79
2022/12/01 01:23:18;;;;;;;1.50;1.34;;;;;;;-0.72;41.89;102735.04;462658;114;923040;-80
2022/12/01 01:24:21;;;;;;;1.44;1.26;;;;;;;-0.71;41.83;102738.55;460124;113;922902;-80
2022/12/01 01:25:24;;;;;;;1.40;1.21;;;;;;;-0.72;41.87;102734.17;464945;114;922571;-80
2022/12/01 01:26:30;;;;;;;1.94;1.31;;;;;;;-0.72;41.89;102737.72;462520;113;922748;-80
2022/12/01 01:27:33;;;;;;;2.18;1.43;;;;;;;-0.72;41.95;102734.17;464011;114;930154;-79
2022/12/01 01:28:37;;;;;;;1.42;1.27;;;;;;;-0.71;41.83;102738.55;461410;113;922462;-80
2022/12/01 01:29:41;;;;;;;1.71;1.61;;;;;;;-0.72;41.83;102734.17;458356;113;930214;-78
2022/12/01 01:30:44;;;;;;;1.64;1.36;;;;;;;-0.72;41.91;102740.40;462092;113;922449;-78
2022/12/01 01:31:48;;;;;;;1.92;1.30;;;;;;;-0.73;41.79;102738.66;461583;113;930280;-80
2022/12/01 01:32:51;;;;;;;1.49;1.19;;;;;;;-0.73;41.82;102727.09;458521;113;930239;-78
2022/12/01 01:33:55;;;;;;;1.43;1.33;;;;;;;-0.74;41.88;102734.25;460218;113;922941;-80
2022/12/01 01:34:58;;;;;;;1.45;1.30;;;;;;;-0.75;41.81;102728.98;463712;113;922902;-79
2022/12/01 01:36:03;;;;;;;1.65;1.35;;;;;;;-0.73;41.83;102732.44;461283;113;930157;-80
2022/12/01 01:37:06;;;;;;;1.42;1.23;;;;;;;-0.74;41.88;102731.58;461813;113;922632;-79
2022/12/01 01:38:10;;;;;;;1.67;1.09;;;;;;;-0.73;41.77;102737.80;464379;113;923408;-80
2022/12/01 01:39:13;;;;;;;1.52;1.38;;;;;;;-0.74;41.80;102731.58;459193;113;922524;-80
2022/12/01 01:40:17;;;;;;;1.39;1.21;;;;;;;-0.75;41.84;102726.30;461567;113;922534;-81
2022/12/01 01:41:22;;;;;;;2.34;1.41;;;;;;;-0.75;41.88;102731.66;458720;115;930213;-79
2022/12/01 01:42:25;;;;;;;1.58;1.45;;;;;;;-0.75;41.84;102720.94;453584;115;922545;-80
2022/12/01 01:43:40;;;;;;;1.67;1.41;;;;;;;-0.76;41.86;102722.75;450855;115;922674;-80
2022/12/01 01:44:50;;;;;;;2.52;1.35;;;;;;;-0.75;41.93;102728.98;454556;115;922575;-82
2022/12/01 01:45:54;;;;;;;1.58;1.16;;;;;;;-0.74;41.89;102733.39;450736;115;922660;-81
2022/12/01 01:46:57;;;;;;;1.79;1.16;;;;;;;-0.76;41.81;102724.56;453948;115;922301;-81
2022/12/01 01:48:02;;;;;;;2.02;1.25;;;;;;;-0.77;41.86;102723.70;456166;115;930233;-80
2022/12/01 01:49:08;;;;;;;1.38;1.09;;;;;;;-0.77;41.76;102723.70;450085;116;922647;-81
2022/12/01 01:50:14;;;;;;;1.80;1.31;;;;;;;-0.76;41.78;102722.75;453474;116;922426;-79
2022/12/01 01:51:27;;;;;;;1.34;1.24;;;;;;;-0.76;41.79;102729.92;452554;115;922402;-78
2022/12/01 01:52:32;;;;;;;1.55;1.45;;;;;;;-0.75;41.80;102728.98;452758;114;922402;-80
2022/12/01 01:53:35;;;;;;;1.49;1.38;;;;;;;-0.75;41.75;102723.62;450180;115;923212;-80
2022/12/01 01:54:45;;;;;;;1.78;1.27;;;;;;;-0.74;41.81;102722.67;454933;116;922448;-80
2022/12/01 01:55:48;;;;;;;1.61;1.12;;;;;;;-0.74;41.75;102723.54;451310;114;922035;-80
2022/12/01 01:56:53;;;;;;;1.22;1.10;;;;;;;-0.76;41.72;102725.44;451962;110;922464;-79
2022/12/01 01:57:56;;;;;;;1.29;1.08;;;;;;;-0.74;41.75;102734.25;458551;115;923520;-78
2022/12/01 01:58:59;;;;;;;1.26;1.12;;;;;;;-0.73;41.73;102730.63;456509;115;921972;-78
2022/12/01 02:00:06;;;;;;;1.32;1.21;;;;;;;-0.72;41.76;102729.69;457216;113;922150;-79
2022/12/01 02:01:11;;;;;;;1.28;0.95;;;;;;;-0.71;41.78;102730.52;456803;115;922609;-78
2022/12/01 02:02:15;;;;;;;1.58;1.17;;;;;;;-0.72;41.76;102732.36;456164;114;922174;-78
2022/12/01 02:03:19;;;;;;;1.45;1.29;;;;;;;-0.71;41.72;102728.70;455137;114;922240;-78
2022/12/01 02:04:24;;;;;;;1.43;1.33;;;;;;;-0.70;41.82;102721.53;456482;115;929904;-77
2022/12/01 02:05:31;;;;;;;1.27;1.17;;;;;;;-0.70;41.80;102730.44;456407;115;922315;-79
2022/12/01 02:06:34;;;;;;;1.41;1.07;;;;;;;-0.67;41.72;102732.09;455179;114;922020;-81
2022/12/01 02:07:39;;;;;;;1.74;1.30;;;;;;;-0.68;41.74;102720.51;456816;115;922046;-80
2022/12/01 02:08:42;;;;;;;1.34;1.21;;;;;;;-0.67;41.65;102726.73;456758;115;922320;-79
2022/12/01 02:09:46;;;;;;;2.52;1.00;;;;;;;-0.67;41.63;102722.23;456567;116;922166;-79
2022/12/01 02:11:11;;;;;;;1.16;1.12;;;;;;;-0.66;41.60;102723.94;457881;116;923488;-78
2022/12/01 02:12:33;;;;;;;0.96;0.92;;;;;;;-0.66;41.71;102720.42;453825;116;922195;-78
2022/12/01 02:13:39;;;;;;;1.38;1.01;;;;;;;-0.66;41.61;102731.14;455711;113;922111;-77
2022/12/01 02:15:01;;;;;;;1.56;1.08;;;;;;;-0.68;41.61;102723.19;435255;116;922586;-79
2022/12/01 02:16:20;;;;;;;1.75;1.08;;;;;;;-0.69;41.62;102717.91;454234;116;922678;-79
2022/12/01 02:17:33;;;;;;;1.01;0.96;;;;;;;-0.72;41.62;102726.14;456856;115;922434;-81
2022/12/01 02:19:13;;;;;;;1.72;1.29;;;;;;;-0.74;41.61;102718.19;454645;116;922636;-80
2022/12/01 02:20:22;;;;;;;1.27;1.08;;;;;;;-0.78;41.60;102722.00;454088;116;922366;-81
2022/12/01 02:21:44;;;;;;;1.26;1.16;;;;;;;-0.81;41.64;102716.80;452028;115;922446;-79
2022/12/01 02:23:00;;;;;;;1.28;1.16;;;;;;;-0.82;41.62;102723.11;457048;115;922386;-81
2022/12/01 02:24:40;;;;;;;1.21;1.11;;;;;;;-0.84;41.59;102714.32;456589;113;922502;-79
2022/12/01 02:26:04;;;;;;;1.35;1.06;;;;;;;-0.84;41.65;102714.32;463594;113;922906;-80
2022/12/01 02:27:11;;;;;;;1.24;1.08;;;;;;;-0.87;41.67;102714.48;459026;114;922495;-79
2022/12/01 02:28:31;;;;;;;2.27;1.00;;;;;;;-0.77;41.76;102718.34;477383;110;946838;-81
2022/12/01 02:29:58;;;;;;;1.62;1.08;;;;;;;-0.89;41.63;102713.73;462132;113;922581;-77
2022/12/01 02:31:23;;;;;;;1.29;1.18;;;;;;;-0.88;41.74;102720.78;457718;116;922395;-79
2022/12/01 02:32:39;;;;;;;1.21;1.11;;;;;;;-0.89;41.75;102713.73;457686;115;922431;-79
2022/12/01 02:33:48;;;;;;;1.73;1.21;;;;;;;-0.90;41.60;102723.58;457813;116;922925;-79
2022/12/01 02:34:59;;;;;;;1.09;0.99;;;;;;;-0.91;41.59;102724.52;444897;115;922830;-79
2022/12/01 02:36:05;;;;;;;2.46;1.18;;;;;;;-0.91;41.61;102720.97;457934;116;922429;-81
2022/12/01 02:37:18;;;;;;;1.20;1.12;;;;;;;-0.91;41.60;102723.66;457095;115;922471;-79
2022/12/01 02:38:25;;;;;;;1.31;1.21;;;;;;;-0.91;41.49;102715.63;457045;115;923399;-80
2022/12/01 02:39:43;;;;;;;1.50;0.91;;;;;;;-0.92;41.51;102719.24;457454;114;922591;-79
2022/12/01 02:40:50;;;;;;;1.87;1.11;;;;;;;-0.93;41.47;102714.83;435926;121;922639;-80
2022/12/01 02:41:57;;;;;;;1.49;1.13;;;;;;;-0.94;41.40;102710.45;450458;115;922473;-81
2022/12/01 02:43:06;;;;;;;1.42;1.26;;;;;;;-0.95;41.44;102714.08;457119;116;922959;-79
2022/12/01 02:44:19;;;;;;;1.62;1.17;;;;;;;-0.94;41.53;102710.45;457597;116;922233;-80
2022/12/01 02:45:31;;;;;;;1.19;1.10;;;;;;;-0.94;41.48;102713.97;457586;115;922520;-80
2022/12/01 02:46:38;;;;;;;1.44;1.34;;;;;;;-0.93;41.36;102714.83;430261;123;922726;-79
2022/12/01 02:47:52;;;;;;;2.52;1.37;;;;;;;-0.82;41.36;102720.43;477306;110;946830;-81
2022/12/01 02:48:58;;;;;;;1.75;1.28;;;;;;;-0.94;41.44;102708.61;465661;114;922594;-81
2022/12/01 02:50:03;;;;;;;1.55;1.23;;;;;;;-0.94;41.34;102711.29;471238;112;922471;-79
2022/12/01 02:51:10;;;;;;;1.14;1.06;;;;;;;-0.93;41.46;102710.34;471626;112;922987;-78
2022/12/01 02:52:15;;;;;;;1.40;1.21;;;;;;;-0.93;41.35;102709.48;471480;112;922285;-79
2022/12/01 02:53:18;;;;;;;4.56;0.99;;;;;;;-0.92;41.29;102719.24;471605;112;922332;-78
2022/12/01 02:54:24;;;;;;;1.96;1.24;;;;;;;-0.94;41.32;102715.81;471586;112;930297;-81
2022/12/01 02:55:27;;;;;;;1.29;1.14;;;;;;;-0.94;41.23;102721.17;471608;112;923006;-79
2022/12/01 02:56:31;;;;;;;2.28;1.60;;;;;;;-0.94;41.20;102721.17;471667;112;922470;-80
2022/12/01 02:57:34;;;;;;;1.29;1.15;;;;;;;-0.95;41.20;102717.63;465396;112;922402;-80
2022/12/01 02:58:37;;;;;;;1.48;1.37;;;;;;;-0.95;41.29;102714.95;463467;114;922677;-81
2022/12/01 02:59:42;;;;;;;2.11;1.12;;;;;;;-0.92;41.34;102713.89;463453;114;922802;-81
2022/12/01 03:01:05;;;;;;;1.79;1.22;;;;;;;-0.92;41.34;102713.89;463281;114;922917;-77
2022/12/01 03:02:12;;;;;;;1.39;1.26;;;;;;;-0.92;41.28;102716.56;463232;114;922509;-80
2022/12/01 03:03:21;;;;;;;1.94;1.41;;;;;;;-0.93;41.23;102707.66;463300;114;922516;-79
2022/12/01 03:04:31;;;;;;;1.06;1.00;;;;;;;-0.94;41.24;102711.29;462073;114;922536;-80
2022/12/01 03:05:43;;;;;;;1.60;1.03;;;;;;;-0.93;41.23;102713.02;462650;114;922560;-78
2022/12/01 03:07:15;;;;;;;1.50;1.22;;;;;;;-0.93;41.17;102709.48;462671;114;922834;-79
2022/12/01 03:08:50;;;;;;;1.07;0.98;;;;;;;-0.95;41.09;102714.95;462526;114;922577;-79
2022/12/01 03:10:03;;;;;;;2.54;1.17;;;;;;;-0.98;41.20;102712.42;463230;114;922487;-79
2022/12/01 03:11:06;;;;;;;1.78;1.60;;;;;;;-1.00;41.21;102713.48;463220;114;922846;-80
2022/12/01 03:12:13;;;;;;;1.97;1.77;;;;;;;-1.01;41.16;102709.08;463283;114;922492;-79
2022/12/01 03:13:39;;;;;;;1.84;1.74;;;;;;;-1.02;41.19;102713.56;463255;114;922522;-80
2022/12/01 03:14:46;;;;;;;1.99;1.68;;;;;;;-1.02;41.20;102718.05;453568;117;922645;-78
2022/12/01 03:15:55;;;;;;;2.09;1.36;;;;;;;-1.02;41.24;102713.56;463243;113;922525;-78
2022/12/01 03:17:02;;;;;;;2.01;1.36;;;;;;;-1.03;41.26;102711.83;463234;114;922454;-80
2022/12/01 03:18:14;;;;;;;1.34;1.24;;;;;;;-1.03;41.21;102716.31;463147;114;922720;-79
2022/12/01 03:19:32;;;;;;;4.02;1.75;;;;;;;-1.02;41.20;102712.70;463170;112;922749;-80
2022/12/01 03:20:46;;;;;;;1.57;1.38;;;;;;;-1.03;41.19;102706.48;462875;114;922619;-79
2022/12/01 03:22:09;;;;;;;1.22;1.12;;;;;;;-1.03;41.17;102708.28;462869;114;922429;-80
2022/12/01 03:23:15;;;;;;;1.33;1.21;;;;;;;-1.05;41.07;102711.08;463256;114;922537;-80
2022/12/01 03:24:22;;;;;;;1.17;1.07;;;;;;;-1.06;41.03;102703.12;463257;114;922289;-79
2022/12/01 03:25:29;;;;;;;2.28;1.19;;;;;;;-1.08;41.02;102699.66;467119;112;922595;-80
2022/12/01 03:26:35;;;;;;;1.28;1.18;;;;;;;-1.10;41.01;102699.73;471601;112;922386;-79
2022/12/01 03:27:41;;;;;;;2.31;1.37;;;;;;;-1.09;41.01;102708.64;471472;112;922947;-82
2022/12/01 03:28:50;;;;;;;1.42;1.31;;;;;;;-1.09;41.01;102704.15;468536;112;922550;-80
2022/12/01 03:29:56;;;;;;;1.72;1.20;;;;;;;-1.07;41.06;102704.07;468396;112;922526;-79
2022/12/01 03:31:03;;;;;;;1.24;1.14;;;;;;;-1.07;41.02;102706.75;463266;114;922445;-79
2022/12/01 03:32:10;;;;;;;2.42;1.30;;;;;;;-1.07;40.94;102696.91;463241;114;923153;-81
2022/12/01 03:33:26;;;;;;;1.19;1.09;;;;;;;-0.95;41.04;102700.69;482680;110;946835;-79
2022/12/01 03:34:33;;;;;;;1.56;1.07;;;;;;;-1.06;41.02;102706.67;469476;112;922490;-81
2022/12/01 03:35:46;;;;;;;1.15;1.04;;;;;;;-1.05;40.91;102702.18;457509;116;923010;-80
2022/12/01 03:36:56;;;;;;;1.14;1.04;;;;;;;-1.06;40.96;102703.98;457358;116;922510;-78
2022/12/01 03:38:05;;;;;;;1.42;1.32;;;;;;;-1.06;40.91;102703.98;457796;116;922475;-78
2022/12/01 03:39:13;;;;;;;1.23;1.13;;;;;;;-1.06;40.90;102705.80;457490;115;922692;-78
2022/12/01 03:40:20;;;;;;;1.56;1.12;;;;;;;-1.07;40.83;102709.42;458038;114;922403;-80
2022/12/01 03:41:27;;;;;;;2.04;1.25;;;;;;;-1.08;40.90;102703.20;457517;116;922494;-79
2022/12/01 03:42:36;;;;;;;1.17;0.97;;;;;;;-1.08;40.81;102702.34;457529;116;922571;-80
2022/12/01 03:43:43;;;;;;;1.26;1.16;;;;;;;-1.08;40.80;102705.02;457569;116;922401;-81
2022/12/01 03:44:49;;;;;;;1.26;1.16;;;;;;;-1.06;40.85;102708.48;459902;113;923216;-80
2022/12/01 03:45:59;;;;;;;2.11;1.37;;;;;;;-1.06;40.77;102705.80;465594;114;922999;-80
2022/12/01 03:47:06;;;;;;;1.52;1.23;;;;;;;-1.06;40.76;102712.02;465414;114;922590;-79
2022/12/01 03:48:09;;;;;;;5.07;1.66;;;;;;;-1.07;40.72;102715.64;465576;114;923034;-80
2022/12/01 03:49:16;;;;;;;1.66;1.02;;;;;;;-1.08;40.68;102713.91;465888;114;922495;-79
2022/12/01 03:50:19;;;;;;;2.50;1.04;;;;;;;-1.09;40.56;102719.34;458718;114;922537;-79
2022/12/01 03:51:34;;;;;;;1.50;1.24;;;;;;;-1.10;40.63;102713.12;457744;116;923450;-79
2022/12/01 03:52:50;;;;;;;1.26;1.16;;;;;;;-1.09;40.61;102706.83;457141;116;930101;-81
2022/12/01 03:54:00;;;;;;;1.68;1.10;;;;;;;-1.10;40.67;102723.83;448465;116;923392;-79
2022/12/01 03:55:16;;;;;;;2.10;1.31;;;;;;;-1.09;40.65;102722.02;458170;114;922620;-78
2022/12/01 03:56:29;;;;;;;1.26;1.16;;;;;;;-0.99;40.60;102718.73;494127;107;922948;-81
2022/12/01 03:57:54;;;;;;;1.48;1.35;;;;;;;-1.12;40.54;102711.50;485210;109;922166;-79
2022/12/01 03:59:01;;;;;;;1.69;1.43;;;;;;;-1.14;40.32;102713.39;485197;109;922244;-79
2022/12/01 04:00:07;;;;;;;1.65;1.54;;;;;;;-1.17;40.43;102716.26;475775;109;922698;-79
2022/12/01 04:01:12;;;;;;;1.58;1.32;;;;;;;-1.18;40.37;102717.20;466774;113;922147;-79
2022/12/01 04:02:16;;;;;;;1.37;1.27;;;;;;;-1.20;40.37;102713.73;467051;113;922259;-80
2022/12/01 04:03:23;;;;;;;1.50;1.40;;;;;;;-1.21;40.45;102717.39;466320;113;930181;-80
2022/12/01 04:04:26;;;;;;;2.24;1.38;;;;;;;-1.21;40.38;102720.06;466121;113;922541;-78
2022/12/01 04:05:31;;;;;;;1.40;1.30;;;;;;;-1.21;40.46;102714.72;457934;116;922427;-78
2022/12/01 04:06:34;;;;;;;1.39;1.24;;;;;;;-1.21;40.45;102720.06;466252;113;922434;-81
2022/12/01 04:07:39;;;;;;;1.18;1.09;;;;;;;-1.23;40.36;102720.14;466361;113;922493;-80
2022/12/01 04:08:42;;;;;;;1.36;1.26;;;;;;;-1.21;40.40;102717.39;466285;113;930076;-78
2022/12/01 04:09:45;;;;;;;1.69;1.49;;;;;;;-1.21;40.27;102723.58;466156;113;922441;-81
2022/12/01 04:10:49;;;;;;;1.45;1.35;;;;;;;-1.22;40.22;102719.20;464932;114;922517;-79
2022/12/01 04:13:21;;;;;;;1.79;1.26;;;;;;;-1.20;40.30;102716.41;458159;116;922518;-80
2022/12/01 04:14:21;;;;;;;1.63;1.08;;;;;;;-1.22;40.15;102713.84;457704;116;922503;-80
2022/12/01 04:15:26;;;;;;;1.34;1.24;;;;;;;-1.23;40.13;102720.14;457862;115;923039;-79
2022/12/01 04:16:29;;;;;;;1.54;1.44;;;;;;;-1.23;40.16;102719.28;458036;116;922844;-79
2022/12/01 04:17:32;;;;;;;1.32;1.22;;;;;;;-1.24;40.13;102717.55;458236;116;930183;-80
2022/12/01 04:18:36;;;;;;;1.32;1.22;;;;;;;-1.23;40.22;102719.28;458234;116;922436;-81
2022/12/01 04:19:39;;;;;;;1.27;1.17;;;;;;;-1.23;40.12;102724.63;459917;113;930163;-80
2022/12/01 04:20:42;;;;;;;1.36;1.16;;;;;;;-1.21;40.19;102733.45;470393;113;922836;-79
2022/12/01 04:21:45;;;;;;;1.66;1.39;;;;;;;-1.20;40.07;102724.44;470358;113;923373;-78
2022/12/01 04:22:48;;;;;;;1.37;1.19;;;;;;;-1.20;40.09;102729.80;470374;113;922900;-80
2022/12/01 04:24:00;;;;;;;1.69;0.99;;;;;;;-1.18;40.08;102730.59;466634;113;922831;-78
2022/12/01 04:25:05;;;;;;;1.19;1.00;;;;;;;-1.19;40.13;102721.69;458075;115;922881;-79
2022/12/01 04:26:08;;;;;;;1.02;0.94;;;;;;;-1.18;40.15;102727.91;460506;115;922451;-82
2022/12/01 04:27:13;;;;;;;1.38;1.28;;;;;;;-1.17;40.19;102725.16;466183;113;922514;-79
2022/12/01 04:28:16;;;;;;;1.22;1.10;;;;;;;-1.16;40.12;102731.37;458338;116;922517;-81
2022/12/01 04:29:19;;;;;;;1.09;0.99;;;;;;;-1.16;40.13;102731.37;466475;113;922885;-81
2022/12/01 04:30:23;;;;;;;1.86;1.09;;;;;;;-1.17;40.05;102719.80;469004;113;922507;-80
2022/12/01 04:31:26;;;;;;;1.36;1.12;;;;;;;-1.16;40.03;102728.70;459450;113;922985;-79
2022/12/01 04:32:29;;;;;;;1.19;1.09;;;;;;;-1.16;39.94;102736.73;450529;117;922472;-80
2022/12/01 04:33:32;;;;;;;1.27;1.02;;;;;;;-1.16;39.98;102728.70;458390;116;922636;-79
2022/12/01 04:34:35;;;;;;;1.50;1.24;;;;;;;-1.15;39.89;102730.39;451330;114;922965;-80
2022/12/01 04:35:38;;;;;;;1.23;1.04;;;;;;;-1.15;39.88;102723.23;458327;116;922512;-80
2022/12/01 04:36:42;;;;;;;1.72;1.17;;;;;;;-1.16;39.87;102728.70;458304;116;922577;-81
2022/12/01 04:37:45;;;;;;;1.59;1.16;;;;;;;-1.16;39.88;102734.05;465037;114;922420;-79
2022/12/01 04:38:48;;;;;;;1.32;1.00;;;;;;;-1.18;39.85;102727.91;458245;116;922997;-80
2022/12/01 04:39:51;;;;;;;1.60;1.10;;;;;;;-1.18;39.85;102727.91;457861;115;930182;-80
2022/12/01 04:40:55;;;;;;;1.62;1.02;;;;;;;-1.18;39.82;102727.91;458222;116;923042;-79
2022/12/01 04:41:58;;;;;;;1.67;1.19;;;;;;;-1.18;39.82;102736.80;458291;116;930044;-79
2022/12/01 04:43:01;;;;;;;1.22;1.10;;;;;;;-1.19;39.71;102731.53;458244;116;922565;-80
2022/12/01 04:44:05;;;;;;;1.14;0.95;;;;;;;-1.20;39.61;102736.02;458291;116;923458;-81
2022/12/01 04:45:09;;;;;;;1.10;1.00;;;;;;;-1.21;39.58;102736.13;455610;115;922559;-79
2022/12/01 04:46:13;;;;;;;1.39;1.28;;;;;;;-1.22;39.64;102737.06;457581;116;922340;-80
2022/12/01 04:47:17;;;;;;;1.14;1.01;;;;;;;-1.23;39.60;102729.98;457568;116;922269;-80
2022/12/01 04:48:20;;;;;;;1.72;1.18;;;;;;;-1.23;39.56;102740.69;457519;116;930003;-79
2022/12/01 04:49:24;;;;;;;1.22;1.07;;;;;;;-1.24;39.63;102736.28;457602;116;922260;-79
2022/12/01 04:50:27;;;;;;;1.27;1.07;;;;;;;-1.26;39.56;102739.90;466701;113;922150;-79
2022/12/01 04:51:31;;;;;;;1.67;1.47;;;;;;;-1.27;39.56;102743.52;466923;113;922079;-79
2022/12/01 04:52:36;;;;;;;1.52;1.07;;;;;;;-1.27;39.49;102745.36;466757;113;922700;-78
2022/12/01 04:53:39;;;;;;;1.59;1.09;;;;;;;-1.28;39.50;102740.95;466770;113;930243;-78
2022/12/01 04:54:42;;;;;;;1.36;1.26;;;;;;;-1.29;39.45;102745.44;466933;113;922749;-79
2022/12/01 04:55:46;;;;;;;1.36;1.12;;;;;;;-1.29;39.54;102742.77;466965;113;922282;-79
2022/12/01 04:56:49;;;;;;;2.62;1.20;;;;;;;-1.28;39.52;102760.55;462260;113;922812;-78
2022/12/01 04:57:52;;;;;;;1.15;1.05;;;;;;;-1.28;39.49;102744.49;459250;115;922467;-79
2022/12/01 04:58:55;;;;;;;1.18;1.08;;;;;;;-1.27;39.56;102754.22;458893;115;922892;-80
2022/12/01 04:59:58;;;;;;;1.11;0.99;;;;;;;-1.28;39.45;102760.55;459889;113;922564;-79
2022/12/01 05:01:04;;;;;;;1.25;1.08;;;;;;;-1.28;39.36;102759.69;461748;115;922531;-78
2022/12/01 05:02:08;;;;;;;1.29;1.19;;;;;;;-1.29;39.39;102756.14;461061;115;922825;-77
2022/12/01 05:03:11;;;;;;;1.25;1.15;;;;;;;-1.30;39.36;102759.77;461764;115;922344;-80
2022/12/01 05:04:16;;;;;;;1.54;1.22;;;;;;;-1.30;39.39;102754.41;461439;115;922501;-79
2022/12/01 05:05:19;;;;;;;3.34;1.22;;;;;;;-1.28;39.45;102757.01;461953;115;922764;-78
2022/12/01 05:06:25;;;;;;;2.59;1.24;;;;;;;-1.29;39.44;102753.47;453015;117;922634;-79
2022/12/01 05:07:28;;;;;;;1.63;1.50;;;;;;;-1.29;39.43;102758.81;452894;117;922382;-79
2022/12/01 05:08:33;;;;;;;1.24;1.14;;;;;;;-1.28;39.27;102757.01;452965;117;922507;-78
2022/12/01 05:09:36;;;;;;;3.15;1.15;;;;;;;-1.29;39.35;102750.79;454060;115;923132;-78